createdAt,value
2022-09-10T00:01:26.813Z,14.37
2022-09-10T00:03:54.926Z,14.37
2022-09-10T00:06:27.906Z,14.42
2022-09-10T00:08:58.868Z,14.39
2022-09-10T00:11:28.162Z,14.43
2022-09-10T00:13:57.363Z,14.46
2022-09-10T00:16:25.342Z,14.46
2022-09-10T00:18:52.324Z,14.50
2022-09-10T00:21:21.061Z,14.50
2022-09-10T00:23:48.934Z,14.46
2022-09-10T00:26:22.882Z,14.47
2022-09-10T00:28:51.925Z,14.44
2022-09-10T00:31:20.064Z,14.47
2022-09-10T00:33:46.857Z,14.40
2022-09-10T00:36:19.562Z,14.40
2022-09-10T00:38:46.994Z,14.33
2022-09-10T00:41:15.386Z,14.31
2022-09-10T00:43:57.100Z,14.26
2022-09-10T00:46:43.907Z,14.15
2022-09-10T00:49:36.131Z,14.06
2022-09-10T00:52:04.092Z,13.92
2022-09-10T00:54:34.594Z,13.89
2022-09-10T00:57:12.737Z,13.85
2022-09-10T00:59:46.809Z,13.79
2022-09-10T01:02:14.300Z,13.82
2022-09-10T01:04:41.882Z,13.83
2022-09-10T01:07:10.912Z,13.90
2022-09-10T01:09:39.219Z,13.86
2022-09-10T01:12:05.919Z,13.93
2022-09-10T01:14:51.715Z,13.99
2022-09-10T01:17:37.015Z,14.04
2022-09-10T01:20:26.013Z,14.04
2022-09-10T01:23:29.224Z,14.07
2022-09-10T01:26:33.241Z,14.04
2022-09-10T01:29:14.660Z,14.07
2022-09-10T01:31:51.988Z,14.10
2022-09-10T01:34:27.526Z,14.14
2022-09-10T01:37:00.194Z,14.16
2022-09-10T01:39:27.902Z,14.12
2022-09-10T01:41:54.748Z,14.11
2022-09-10T01:44:43.147Z,14.13
2022-09-10T01:47:17.805Z,14.14
2022-09-10T01:49:53.441Z,14.17
2022-09-10T01:52:45.759Z,14.18
2022-09-10T01:55:42.004Z,14.18
2022-09-10T01:58:50.355Z,14.15
2022-09-10T02:01:32.162Z,14.12
2022-09-10T02:04:04.091Z,14.11
2022-09-10T02:06:36.439Z,14.10
2022-09-10T02:09:04.298Z,14.17
2022-09-10T02:11:43.215Z,14.15
2022-09-10T02:14:10.166Z,14.12
2022-09-10T02:16:40.418Z,14.09
2022-09-10T02:19:08.218Z,14.09
2022-09-10T02:21:35.828Z,14.06
2022-09-10T02:24:10.091Z,14.02
2022-09-10T02:26:39.882Z,14.04
2022-09-10T02:29:09.299Z,14.04
2022-09-10T02:31:36.560Z,14.02
2022-09-10T02:34:03.634Z,14.03
2022-09-10T02:36:31.861Z,14.03
2022-09-10T02:39:01.356Z,14.09
2022-09-10T02:41:28.031Z,14.08
2022-09-10T02:43:55.538Z,14.07
2022-09-10T02:46:22.300Z,14.03
2022-09-10T02:48:48.956Z,14.00
2022-09-10T02:51:15.628Z,13.96
2022-09-10T02:53:42.318Z,14.01
2022-09-10T02:56:09.005Z,14.06
2022-09-10T02:58:35.764Z,14.07
2022-09-10T03:01:10.853Z,14.06
2022-09-10T03:03:37.639Z,14.04
2022-09-10T03:06:04.866Z,14.00
2022-09-10T03:08:31.820Z,14.08
2022-09-10T03:10:59.475Z,14.02
2022-09-10T03:13:27.734Z,14.05
2022-09-10T03:15:58.805Z,13.93
2022-09-10T03:18:27.407Z,14.03
2022-09-10T03:20:54.027Z,14.02
2022-09-10T03:23:20.711Z,14.02
2022-09-10T03:25:49.854Z,13.93
2022-09-10T03:28:16.708Z,13.93
2022-09-10T03:30:43.458Z,14.02
2022-09-10T03:33:11.863Z,13.88
2022-09-10T03:35:38.877Z,13.79
2022-09-10T03:38:05.952Z,13.79
2022-09-10T03:40:33.026Z,13.81
2022-09-10T03:43:01.211Z,13.81
2022-09-10T03:45:28.725Z,13.74
2022-09-10T03:47:55.544Z,13.71
2022-09-10T03:50:22.564Z,13.71
2022-09-10T03:52:49.590Z,13.66
2022-09-10T03:55:16.313Z,13.62
2022-09-10T03:57:42.927Z,13.59
2022-09-10T04:00:13.347Z,13.55
2022-09-10T04:02:41.722Z,13.60
2022-09-10T04:05:09.809Z,13.64
2022-09-10T04:07:36.871Z,13.65
2022-09-10T04:10:04.027Z,13.63
2022-09-10T04:12:30.624Z,13.62
2022-09-10T04:14:57.286Z,13.66
2022-09-10T04:17:27.816Z,13.63
2022-09-10T04:19:54.657Z,13.63
2022-09-10T04:22:22.477Z,13.68
2022-09-10T04:24:49.469Z,13.61
2022-09-10T04:27:16.991Z,13.62
2022-09-10T04:29:43.762Z,13.62
2022-09-10T04:32:10.422Z,13.61
2022-09-10T04:34:37.068Z,13.62
2022-09-10T04:37:03.862Z,13.62
2022-09-10T04:39:30.499Z,13.62
2022-09-10T04:41:58.082Z,13.60
2022-09-10T04:44:24.774Z,13.59
2022-09-10T04:46:51.864Z,13.59
2022-09-10T04:49:18.499Z,13.62
2022-09-10T04:51:45.115Z,13.61
2022-09-10T04:54:14.972Z,13.61
2022-09-10T04:56:47.446Z,13.63
2022-09-10T04:59:14.165Z,13.65
2022-09-10T05:01:40.864Z,13.64
2022-09-10T05:04:07.573Z,13.68
2022-09-10T05:06:35.280Z,13.65
2022-09-10T05:09:02.050Z,13.70
2022-09-10T05:11:28.792Z,13.71
2022-09-10T05:13:55.466Z,13.74
2022-09-10T05:16:22.130Z,13.70
2022-09-10T05:18:48.893Z,13.71
2022-09-10T05:21:15.727Z,13.67
2022-09-10T05:23:42.384Z,13.68
2022-09-10T05:26:10.521Z,13.70
2022-09-10T05:28:37.301Z,13.70
2022-09-10T05:31:03.920Z,13.67
2022-09-10T05:33:31.067Z,13.62
2022-09-10T05:35:57.832Z,13.60
2022-09-10T05:38:24.960Z,13.56
2022-09-10T05:40:53.750Z,13.55
2022-09-10T05:43:21.090Z,13.61
2022-09-10T05:45:48.906Z,13.58
2022-09-10T05:48:15.627Z,13.62
2022-09-10T05:50:45.671Z,13.52
2022-09-10T05:53:12.950Z,13.55
2022-09-10T05:55:39.654Z,13.56
2022-09-10T05:58:06.338Z,13.58
2022-09-10T06:00:33.443Z,13.59
2022-09-10T06:03:00.797Z,13.61
2022-09-10T06:05:28.321Z,13.64
2022-09-10T06:07:55.298Z,13.71
2022-09-10T06:10:22.497Z,13.68
2022-09-10T06:12:52.023Z,13.72
2022-09-10T06:15:20.727Z,13.71
2022-09-10T06:17:48.366Z,13.71
2022-09-10T06:20:15.714Z,13.73
2022-09-10T06:22:45.216Z,13.76
2022-09-10T06:25:15.763Z,13.71
2022-09-10T06:27:44.643Z,13.74
2022-09-10T06:30:17.665Z,13.75
2022-09-10T06:32:44.692Z,13.67
2022-09-10T06:35:11.394Z,13.70
2022-09-10T06:37:38.032Z,13.73
2022-09-10T06:40:05.339Z,13.72
2022-09-10T06:42:39.152Z,13.75
2022-09-10T06:45:06.227Z,13.81
2022-09-10T06:50:20.821Z,13.93
2022-09-10T06:53:02.730Z,13.96
2022-09-10T06:55:29.484Z,14.00
2022-09-10T06:58:14.507Z,14.08
2022-09-10T07:00:41.481Z,14.09
2022-09-10T07:03:09.075Z,14.14
2022-09-10T07:06:16.037Z,14.11
2022-09-10T07:08:43.664Z,14.17
2022-09-10T07:11:13.638Z,14.20
2022-09-10T07:13:54.170Z,14.15
2022-09-10T07:16:25.910Z,14.20
2022-09-10T07:18:57.856Z,14.25
2022-09-10T07:21:27.404Z,14.27
2022-09-10T07:24:23.620Z,14.32
2022-09-10T07:26:50.711Z,14.38
2022-09-10T07:29:18.382Z,14.43
2022-09-10T07:31:47.696Z,14.46
2022-09-10T07:34:14.556Z,14.43
2022-09-10T07:36:41.200Z,14.44
2022-09-10T07:39:09.114Z,14.47
2022-09-10T07:41:36.062Z,14.45
2022-09-10T07:44:02.978Z,14.50
2022-09-10T07:46:30.054Z,14.52
2022-09-10T07:49:00.738Z,14.58
2022-09-10T07:51:31.864Z,14.64
2022-09-10T07:53:59.381Z,14.70
2022-09-10T07:56:26.648Z,14.74
2022-09-10T07:58:54.141Z,14.77
2022-09-10T08:01:21.446Z,14.85
2022-09-10T08:03:48.390Z,14.88
2022-09-10T08:06:16.078Z,14.99
2022-09-10T08:08:45.651Z,14.98
2022-09-10T08:11:17.702Z,14.99
2022-09-10T08:13:46.891Z,15.09
2022-09-10T08:16:17.220Z,15.22
2022-09-10T08:18:45.513Z,15.29
2022-09-10T08:21:13.714Z,15.33
2022-09-10T08:23:40.425Z,15.26
2022-09-10T08:26:10.422Z,15.40
2022-09-10T08:28:38.072Z,15.43
2022-09-10T08:31:08.239Z,15.57
2022-09-10T08:33:35.765Z,15.62
2022-09-10T08:36:04.812Z,15.66
2022-09-10T08:38:37.085Z,15.77
2022-09-10T08:41:28.260Z,15.69
2022-09-10T08:44:03.523Z,15.91
2022-09-10T08:46:37.299Z,16.01
2022-09-10T08:49:28.681Z,15.96
2022-09-10T08:52:19.933Z,16.17
2022-09-10T08:55:17.695Z,16.32
2022-09-10T08:58:23.357Z,16.39
2022-09-10T09:00:55.225Z,16.34
2022-09-10T09:03:31.872Z,16.34
2022-09-10T09:05:59.515Z,16.35
2022-09-10T09:08:29.952Z,16.35
2022-09-10T09:11:10.512Z,16.32
2022-09-10T09:13:51.816Z,16.40
2022-09-10T09:16:34.339Z,16.45
2022-09-10T09:19:17.482Z,16.44
2022-09-10T09:21:52.509Z,16.47
2022-09-10T09:24:23.927Z,16.53
2022-09-10T09:27:01.415Z,16.65
2022-09-10T09:29:46.105Z,16.54
2022-09-10T09:32:17.284Z,16.54
2022-09-10T09:34:51.135Z,16.68
2022-09-10T09:37:24.194Z,16.79
2022-09-10T09:40:17.011Z,16.59
2022-09-10T09:42:50.578Z,16.89
2022-09-10T09:45:40.220Z,17.11
2022-09-10T09:48:10.174Z,17.13
2022-09-10T09:50:41.974Z,17.03
2022-09-10T09:53:17.788Z,16.89
2022-09-10T09:55:53.734Z,16.96
2022-09-10T09:58:32.337Z,16.88
2022-09-10T10:01:05.943Z,16.82
2022-09-10T10:03:38.228Z,16.80
2022-09-10T10:06:10.314Z,16.76
2022-09-10T10:09:00.175Z,16.77
2022-09-10T10:12:08.933Z,16.95
2022-09-10T10:15:41.172Z,17.11
2022-09-10T10:18:23.324Z,17.17
2022-09-10T10:21:10.331Z,17.08
2022-09-10T10:23:41.576Z,17.07
2022-09-10T10:27:04.317Z,17.11
2022-09-10T10:30:02.081Z,17.25
2022-09-10T10:32:49.154Z,17.42
2022-09-10T10:44:37.916Z,17.09
2022-09-10T10:47:34.731Z,17.33
2022-09-10T10:54:18.439Z,17.49
2022-09-10T10:57:06.986Z,17.60
2022-09-10T10:59:39.746Z,17.57
2022-09-10T11:02:29.073Z,17.68
2022-09-10T11:05:20.467Z,17.53
2022-09-10T11:07:54.890Z,17.31
2022-09-10T11:25:28.223Z,18.12
2022-09-10T11:28:34.815Z,18.35
2022-09-10T11:35:17.839Z,17.96
2022-09-10T11:38:01.255Z,17.94
2022-09-10T11:40:40.971Z,17.89
2022-09-10T11:43:14.990Z,17.75
2022-09-10T11:45:48.740Z,17.89
2022-09-10T11:48:25.124Z,17.96
2022-09-10T11:51:01.473Z,17.85
2022-09-10T11:53:29.811Z,17.96
2022-09-10T11:56:35.421Z,18.16
2022-09-10T11:59:53.318Z,18.13
2022-09-10T12:03:37.517Z,18.29
2022-09-10T12:06:18.042Z,18.32
2022-09-10T12:09:03.326Z,18.43
2022-09-10T12:11:47.982Z,18.30
2022-09-10T12:14:38.821Z,18.32
2022-09-10T12:17:27.280Z,18.27
2022-09-10T12:19:57.439Z,18.23
2022-09-10T12:22:36.851Z,18.39
2022-09-10T12:25:28.302Z,18.59
2022-09-10T12:28:00.257Z,18.87
2022-09-10T12:30:52.126Z,18.97
2022-09-10T12:33:22.161Z,18.92
2022-09-10T12:35:49.915Z,19.04
2022-09-10T12:38:44.628Z,19.07
2022-09-10T12:41:21.014Z,19.07
2022-09-10T12:43:53.175Z,19.07
2022-09-10T12:46:22.821Z,19.01
2022-09-10T12:52:13.705Z,19.11
2022-09-10T12:54:49.578Z,19.06
2022-09-10T12:57:30.026Z,18.90
2022-09-10T13:00:22.909Z,18.94
2022-09-10T13:03:07.027Z,18.70
2022-09-10T13:05:46.433Z,18.80
2022-09-10T13:08:18.197Z,18.59
2022-09-10T13:11:00.193Z,18.30
2022-09-10T13:13:59.426Z,18.21
2022-09-10T13:16:26.521Z,18.10
2022-09-10T13:18:57.010Z,18.20
2022-09-10T13:21:24.006Z,18.28
2022-09-10T13:23:56.279Z,18.43
2022-09-10T13:26:37.459Z,18.47
2022-09-10T13:29:27.993Z,18.72
2022-09-10T13:32:31.629Z,18.69
2022-09-10T13:35:12.083Z,18.78
2022-09-10T13:37:53.738Z,18.74
2022-09-10T13:40:39.124Z,18.86
2022-09-10T13:43:27.815Z,18.96
2022-09-10T13:46:05.333Z,19.07
2022-09-10T13:48:46.257Z,19.34
2022-09-10T13:51:29.304Z,19.44
2022-09-10T13:54:07.296Z,19.60
2022-09-10T13:56:35.489Z,19.72
2022-09-10T13:59:05.125Z,19.85
2022-09-10T14:01:59.494Z,19.51
2022-09-10T14:04:31.833Z,19.64
2022-09-10T14:07:22.007Z,19.36
2022-09-10T14:10:01.775Z,19.25
2022-09-10T14:12:32.783Z,18.86
2022-09-10T14:15:02.423Z,19.01
2022-09-10T14:17:34.163Z,19.04
2022-09-10T14:20:05.964Z,19.08
2022-09-10T14:22:32.886Z,19.10
2022-09-10T14:25:01.827Z,19.08
2022-09-10T14:27:39.545Z,19.10
2022-09-10T14:30:18.806Z,19.10
2022-09-10T14:32:48.419Z,19.09
2022-09-10T14:35:40.763Z,19.07
2022-09-10T14:38:34.354Z,19.11
2022-09-10T14:41:16.499Z,19.04
2022-09-10T14:43:43.227Z,19.13
2022-09-10T14:46:34.002Z,19.06
2022-09-10T14:49:01.482Z,19.02
2022-09-10T14:51:28.450Z,19.08
2022-09-10T14:53:57.900Z,19.15
2022-09-10T14:56:29.005Z,19.22
2022-09-10T14:58:57.995Z,19.30
2022-09-10T15:01:25.496Z,19.25
2022-09-10T15:03:52.692Z,19.17
2022-09-10T15:06:21.979Z,19.19
2022-09-10T15:08:52.875Z,19.24
2022-09-10T15:11:22.643Z,19.16
2022-09-10T15:13:49.708Z,19.16
2022-09-10T15:16:16.923Z,19.12
2022-09-10T15:18:43.666Z,19.18
2022-09-10T15:21:14.334Z,19.21
2022-09-10T15:23:42.170Z,19.27
2022-09-10T15:26:13.192Z,19.31
2022-09-10T15:28:41.041Z,19.25
2022-09-10T15:31:09.134Z,19.15
2022-09-10T15:33:36.215Z,19.16
2022-09-10T15:36:03.791Z,19.17
2022-09-10T15:38:32.671Z,19.20
2022-09-10T15:41:13.113Z,19.11
2022-09-10T15:43:43.128Z,18.96
2022-09-10T15:46:11.874Z,19.04
2022-09-10T15:48:39.153Z,18.88
2022-09-10T15:51:11.874Z,19.03
2022-09-10T15:53:39.492Z,19.18
2022-09-10T15:56:07.936Z,19.06
2022-09-10T15:58:35.464Z,19.09
2022-09-10T16:01:07.521Z,19.16
2022-09-10T16:03:34.321Z,19.07
2022-09-10T16:06:13.103Z,18.95
2022-09-10T16:17:10.634Z,18.85
2022-09-10T16:19:42.245Z,18.92
2022-09-10T16:22:08.979Z,18.94
2022-09-10T16:24:36.019Z,18.88
2022-09-10T16:27:03.047Z,18.90
2022-09-10T16:29:29.921Z,18.90
2022-09-10T16:31:56.574Z,18.86
2022-09-10T16:34:24.640Z,18.92
2022-09-10T16:36:56.175Z,18.87
2022-09-10T16:40:09.451Z,18.90
2022-09-10T16:42:36.907Z,18.89
2022-09-10T16:45:07.751Z,18.77
2022-09-10T16:47:36.080Z,18.71
2022-09-10T16:50:03.003Z,18.67
2022-09-10T16:52:30.945Z,18.72
2022-09-10T16:55:02.781Z,18.74
2022-09-10T16:57:30.474Z,18.84
2022-09-10T16:59:57.657Z,18.67
2022-09-10T17:02:24.613Z,18.66
2022-09-10T17:04:51.361Z,18.64
2022-09-10T17:07:20.529Z,18.64
2022-09-10T17:09:47.123Z,18.64
2022-09-10T17:12:13.745Z,18.63
2022-09-10T17:14:40.580Z,18.67
2022-09-10T17:17:07.232Z,18.67
2022-09-10T17:19:34.644Z,18.66
2022-09-10T17:22:01.783Z,18.64
2022-09-10T17:24:31.872Z,18.54
2022-09-10T17:26:58.703Z,18.45
2022-09-10T17:29:26.889Z,18.41
2022-09-10T17:35:04.761Z,18.35
2022-09-10T17:37:32.628Z,18.37
2022-09-10T17:39:59.327Z,18.30
2022-09-10T17:42:26.096Z,18.30
2022-09-10T17:44:53.820Z,18.30
2022-09-10T17:47:21.038Z,18.34
2022-09-10T17:50:06.228Z,18.36
2022-09-10T17:52:33.034Z,18.33
2022-09-10T17:55:03.595Z,18.32
2022-09-10T17:58:01.946Z,18.24
2022-09-10T18:00:28.628Z,18.21
2022-09-10T18:02:55.401Z,18.23
2022-09-10T18:05:22.169Z,18.21
2022-09-10T18:07:48.770Z,18.09
2022-09-10T18:10:49.943Z,18.10
2022-09-10T18:13:41.582Z,18.02
2022-09-10T18:16:21.018Z,17.97
2022-09-10T18:19:00.099Z,17.96
2022-09-10T18:21:35.432Z,17.88
2022-09-10T18:24:03.959Z,17.79
2022-09-10T18:26:32.796Z,17.76
2022-09-10T18:29:16.050Z,17.64
2022-09-10T18:31:51.792Z,17.65
2022-09-10T18:34:23.354Z,17.44
2022-09-10T18:36:57.743Z,17.35
2022-09-10T18:43:04.567Z,17.21
2022-09-10T18:45:31.357Z,17.18
2022-09-10T18:48:07.193Z,17.15
2022-09-10T18:50:40.117Z,17.10
2022-09-10T18:53:09.818Z,17.02
2022-09-10T18:58:51.895Z,16.54
2022-09-10T19:01:19.282Z,16.36
2022-09-10T19:03:48.059Z,16.16
2022-09-10T19:06:32.068Z,15.98
2022-09-10T19:09:10.118Z,15.87
2022-09-10T19:15:39.436Z,15.59
2022-09-10T19:18:06.660Z,15.48
2022-09-10T19:21:07.963Z,15.39
2022-09-10T19:23:39.886Z,15.36
2022-09-10T19:26:09.928Z,15.27
2022-09-10T19:29:21.882Z,15.17
2022-09-10T19:31:50.395Z,15.06
2022-09-10T19:34:19.257Z,15.00
2022-09-10T19:37:28.916Z,14.91
2022-09-10T19:39:57.062Z,14.84
2022-09-10T19:49:26.474Z,14.60
2022-09-10T19:51:54.150Z,14.50
2022-09-10T19:54:22.825Z,14.45
2022-09-10T19:56:50.178Z,14.40
2022-09-10T19:59:17.064Z,14.35
2022-09-10T20:01:46.922Z,14.31
2022-09-10T20:04:49.036Z,14.24
2022-09-10T20:07:16.307Z,14.19
2022-09-10T20:09:43.074Z,14.17
2022-09-10T20:12:56.637Z,14.13
2022-09-10T20:15:26.517Z,14.08
2022-09-10T20:18:28.495Z,14.06
2022-09-10T20:21:15.564Z,13.98
2022-09-10T20:35:10.858Z,13.77
2022-09-10T20:38:45.170Z,13.69
2022-09-10T20:45:12.607Z,13.51
2022-09-10T20:47:43.421Z,13.44
2022-09-10T20:50:13.005Z,13.39
2022-09-10T20:52:42.208Z,13.37
2022-09-10T20:55:11.931Z,13.35
2022-09-10T20:57:59.004Z,13.33
2022-09-10T21:00:26.108Z,13.28
2022-09-10T21:02:53.157Z,13.28
2022-09-10T21:06:23.824Z,13.23
2022-09-10T21:12:42.925Z,13.17
2022-09-10T21:15:09.760Z,13.13
2022-09-10T21:17:36.444Z,13.08
2022-09-10T21:20:04.230Z,13.04
2022-09-10T21:26:51.404Z,12.88
2022-09-10T21:41:15.021Z,12.74
2022-09-10T21:43:47.269Z,12.74
2022-09-10T21:46:23.970Z,12.70
2022-09-10T21:48:51.401Z,12.64
2022-09-10T21:57:17.272Z,12.59
2022-09-10T22:11:59.290Z,12.40
2022-09-10T22:19:23.469Z,12.39
2022-09-10T22:21:51.021Z,12.40
2022-09-10T22:24:20.990Z,12.39
2022-09-10T22:26:47.757Z,12.40
2022-09-10T22:29:19.284Z,12.36
2022-09-10T22:31:47.086Z,12.33
2022-09-10T22:34:15.517Z,12.30
2022-09-10T22:36:44.461Z,12.25
2022-09-10T22:39:15.860Z,12.25
2022-09-10T22:41:43.890Z,12.23
2022-09-10T22:44:11.154Z,12.19
2022-09-10T22:46:39.183Z,12.19
2022-09-10T22:56:09.231Z,12.11
2022-09-10T22:58:36.300Z,12.07
2022-09-10T23:01:05.371Z,12.04
2022-09-10T23:07:22.901Z,11.94
2022-09-10T23:10:57.040Z,11.93
2022-09-10T23:13:23.831Z,11.88
2022-09-10T23:15:50.489Z,11.87
2022-09-10T23:18:17.165Z,11.83
2022-09-10T23:20:44.416Z,11.85
2022-09-10T23:23:11.199Z,11.78
2022-09-10T23:25:38.050Z,11.73
2022-09-10T23:28:12.061Z,11.68
2022-09-10T23:30:47.217Z,11.73
2022-09-10T23:33:49.941Z,11.68
2022-09-10T23:36:27.909Z,11.65
2022-09-10T23:39:30.012Z,11.59
